createdAt,value
2022-11-24T00:02:18.388Z,3.47
2022-11-24T00:04:50.262Z,3.53
2022-11-24T00:07:21.961Z,3.59
2022-11-24T00:09:53.996Z,3.65
2022-11-24T00:12:25.643Z,3.73
2022-11-24T00:14:57.402Z,3.76
2022-11-24T00:17:29.573Z,3.79
2022-11-24T00:20:01.240Z,3.83
2022-11-24T00:22:33.505Z,3.85
2022-11-24T00:25:05.757Z,3.86
2022-11-24T00:27:37.430Z,3.85
2022-11-24T00:30:10.789Z,3.83
2022-11-24T00:32:42.501Z,3.83
2022-11-24T00:35:14.304Z,3.82
2022-11-24T00:37:46.149Z,3.81
2022-11-24T00:40:17.865Z,3.80
2022-11-24T00:42:49.625Z,3.77
2022-11-24T00:45:21.279Z,3.74
2022-11-24T00:47:52.944Z,3.74
2022-11-24T00:50:24.631Z,3.76
2022-11-24T00:52:56.350Z,3.77
2022-11-24T00:55:28.004Z,3.81
2022-11-24T00:57:59.670Z,3.88
2022-11-24T01:00:31.434Z,3.93
2022-11-24T01:03:03.236Z,3.95
2022-11-24T01:05:38.941Z,4.00
2022-11-24T01:08:10.976Z,4.02
2022-11-24T01:10:42.759Z,4.04
2022-11-24T01:13:14.516Z,4.04
2022-11-24T01:15:46.244Z,4.04
2022-11-24T01:18:18.035Z,4.05
2022-11-24T01:20:49.927Z,4.05
2022-11-24T01:23:21.663Z,4.04
2022-11-24T01:25:53.514Z,4.03
2022-11-24T01:28:25.181Z,4.02
2022-11-24T01:31:01.825Z,4.00
2022-11-24T01:33:34.327Z,3.98
2022-11-24T01:36:07.690Z,3.95
2022-11-24T01:38:39.315Z,3.95
2022-11-24T01:41:13.625Z,3.95
2022-11-24T01:43:46.145Z,3.97
2022-11-24T01:46:23.899Z,4.01
2022-11-24T01:49:04.268Z,4.04
2022-11-24T01:51:38.448Z,4.10
2022-11-24T01:54:14.373Z,4.11
2022-11-24T01:56:50.769Z,4.12
2022-11-24T01:59:23.766Z,4.12
2022-11-24T02:01:57.398Z,4.13
2022-11-24T02:04:34.173Z,4.12
2022-11-24T02:07:08.504Z,4.10
2022-11-24T02:09:45.133Z,4.08
2022-11-24T02:12:16.878Z,4.04
2022-11-24T02:14:49.253Z,4.02
2022-11-24T02:17:21.018Z,4.00
2022-11-24T02:19:58.619Z,4.01
2022-11-24T02:22:40.919Z,4.03
2022-11-24T02:25:20.664Z,4.05
2022-11-24T10:11:40.599Z,2.10
2022-11-24T10:14:32.452Z,2.11
2022-11-24T10:17:13.625Z,2.19
2022-11-24T10:19:50.503Z,2.29
2022-11-24T10:22:37.011Z,2.40
2022-11-24T10:25:19.941Z,2.51
2022-11-24T10:27:55.737Z,2.65
2022-11-24T10:30:27.661Z,2.79
2022-11-24T10:33:02.756Z,2.91
2022-11-24T10:35:49.172Z,3.05
2022-11-24T10:38:33.471Z,3.19
2022-11-24T10:41:09.591Z,3.31
2022-11-24T10:43:44.261Z,3.42
2022-11-24T10:46:22.923Z,3.51
2022-11-24T10:48:58.722Z,3.59
2022-11-24T10:51:54.018Z,3.67
2022-11-24T10:54:26.589Z,3.75
2022-11-24T10:56:58.677Z,3.78
2022-11-24T10:59:37.246Z,3.77
2022-11-24T11:02:30.628Z,3.79
2022-11-24T11:05:27.694Z,3.80
2022-11-24T11:11:15.642Z,3.81
2022-11-24T11:14:03.456Z,3.78
2022-11-24T11:16:39.047Z,3.80
2022-11-24T11:19:48.861Z,3.83
2022-11-24T11:22:25.987Z,3.90
2022-11-24T11:25:15.829Z,3.93
2022-11-24T11:27:48.282Z,3.97
2022-11-24T11:36:18.582Z,4.15
2022-11-24T11:38:50.460Z,4.17
2022-11-24T11:41:26.758Z,4.19
2022-11-24T11:44:09.985Z,4.19
2022-11-24T11:46:42.902Z,4.17
2022-11-24T11:49:15.313Z,4.13
2022-11-24T11:52:03.465Z,4.10
2022-11-24T11:54:54.244Z,4.05
2022-11-24T11:57:36.110Z,4.01
2022-11-24T12:00:16.488Z,3.96
2022-11-24T12:03:06.176Z,3.93
2022-11-24T12:05:48.609Z,3.92
2022-11-24T12:08:49.619Z,3.93
2022-11-24T12:11:35.098Z,3.97
2022-11-24T12:14:26.764Z,3.99
2022-11-24T12:17:04.162Z,3.99
2022-11-24T12:19:55.481Z,4.04
2022-11-24T12:22:41.873Z,4.11
2022-11-24T12:25:26.813Z,4.15
2022-11-24T12:28:12.364Z,4.18
2022-11-24T12:30:52.768Z,4.17
2022-11-24T12:33:50.329Z,4.19
2022-11-24T12:36:37.657Z,4.19
2022-11-24T12:39:22.247Z,4.21
2022-11-24T12:42:13.909Z,4.20
2022-11-24T12:45:14.176Z,4.21
2022-11-24T12:48:19.877Z,4.19
2022-11-24T12:50:54.703Z,4.16
2022-11-24T12:53:30.051Z,4.16
2022-11-24T12:56:06.625Z,4.17
2022-11-24T12:58:50.118Z,4.19
2022-11-24T13:01:32.863Z,4.26
2022-11-24T13:04:13.132Z,4.28
2022-11-24T13:06:53.449Z,4.29
2022-11-24T13:09:25.049Z,4.29
2022-11-24T13:12:06.571Z,4.30
2022-11-24T13:14:40.323Z,4.28
2022-11-24T13:20:27.313Z,4.31
2022-11-24T13:23:01.465Z,4.29
2022-11-24T13:25:34.868Z,4.30
2022-11-24T13:28:54.069Z,4.32
2022-11-24T13:31:25.464Z,4.33
2022-11-24T13:33:57.329Z,4.37
2022-11-24T13:36:50.389Z,4.39
2022-11-24T13:39:23.196Z,4.40
2022-11-24T13:42:42.679Z,4.40
2022-11-24T13:45:04.278Z,4.39
2022-11-24T13:47:38.589Z,4.38
2022-11-24T13:50:23.263Z,4.34
2022-11-24T13:53:08.982Z,4.30
2022-11-24T13:55:42.652Z,4.10
2022-11-24T13:58:29.977Z,3.91
2022-11-24T14:01:16.285Z,3.66
2022-11-24T14:04:28.730Z,3.59
2022-11-24T14:06:58.996Z,3.60
2022-11-24T14:09:36.721Z,3.56
2022-11-24T14:12:16.887Z,3.54
2022-11-24T14:14:50.530Z,3.60
2022-11-24T14:17:23.092Z,3.64
2022-11-24T14:19:57.238Z,3.69
2022-11-24T14:22:36.625Z,3.74
2022-11-24T14:25:20.886Z,3.79
2022-11-24T14:27:52.747Z,3.88
2022-11-24T14:30:26.840Z,3.90
2022-11-24T14:33:00.242Z,3.94
2022-11-24T14:35:34.506Z,3.96
2022-11-24T14:38:07.335Z,3.95
2022-11-24T14:40:45.069Z,3.95
2022-11-24T14:43:23.674Z,3.93
2022-11-24T14:45:57.610Z,3.91
2022-11-24T14:48:32.554Z,3.89
2022-11-24T14:51:16.263Z,3.86
2022-11-24T14:53:51.262Z,3.82
2022-11-24T14:56:28.235Z,3.81
2022-11-24T14:59:00.646Z,3.81
2022-11-24T15:01:36.138Z,3.83
2022-11-24T15:04:39.317Z,3.85
2022-11-24T15:07:21.549Z,3.89
2022-11-24T15:09:57.649Z,3.92
2022-11-24T15:12:34.493Z,3.95
2022-11-24T15:15:17.142Z,3.98
2022-11-24T15:17:51.007Z,4.00
2022-11-24T15:20:25.613Z,4.02
2022-11-24T15:23:21.730Z,4.01
2022-11-24T15:25:54.886Z,3.98
2022-11-24T15:28:27.257Z,3.95
2022-11-24T15:31:01.149Z,3.90
2022-11-24T15:33:33.669Z,3.87
2022-11-24T15:36:05.837Z,3.83
2022-11-24T15:38:37.438Z,3.83
2022-11-24T15:41:20.128Z,3.82
2022-11-24T15:43:58.913Z,3.81
2022-11-24T15:46:37.803Z,3.79
2022-11-24T15:49:10.117Z,3.81
2022-11-24T15:51:55.305Z,3.84
2022-11-24T15:54:29.612Z,3.88
2022-11-24T15:57:02.138Z,3.90
2022-11-24T15:59:34.481Z,3.93
2022-11-24T16:02:06.168Z,3.96
2022-11-24T16:04:41.541Z,3.96
2022-11-24T16:07:14.544Z,3.98
2022-11-24T16:09:46.390Z,3.99
2022-11-24T16:12:17.955Z,3.96
2022-11-24T16:14:49.530Z,3.94
2022-11-24T16:17:21.081Z,3.89
2022-11-24T16:20:00.226Z,3.82
2022-11-24T16:22:32.338Z,3.81
2022-11-24T16:25:04.166Z,3.81
2022-11-24T16:27:35.938Z,3.82
2022-11-24T16:30:11.907Z,3.84
2022-11-24T16:32:43.563Z,3.87
2022-11-24T16:35:16.108Z,3.90
2022-11-24T16:37:49.788Z,3.92
2022-11-24T16:40:20.127Z,3.97
2022-11-24T16:42:53.040Z,3.97
2022-11-24T16:45:24.639Z,4.01
2022-11-24T16:47:56.320Z,4.02
2022-11-24T16:50:27.964Z,4.02
2022-11-24T16:53:00.205Z,4.00
2022-11-24T16:55:31.806Z,3.97
2022-11-24T16:58:06.023Z,3.94
2022-11-24T17:00:37.734Z,3.91
2022-11-24T17:03:09.361Z,3.88
2022-11-24T17:05:41.241Z,3.83
2022-11-24T17:08:12.918Z,3.82
2022-11-24T17:10:44.583Z,3.80
2022-11-24T17:13:16.307Z,3.80
2022-11-24T17:15:53.783Z,3.80
2022-11-24T17:18:26.110Z,3.83
2022-11-24T17:21:07.701Z,3.87
2022-11-24T17:23:41.337Z,3.91
2022-11-24T17:26:14.938Z,3.95
2022-11-24T17:28:45.358Z,3.98
2022-11-24T17:31:22.716Z,3.98
2022-11-24T17:33:56.331Z,3.98
2022-11-24T17:36:28.148Z,3.96
2022-11-24T17:39:01.569Z,3.95
2022-11-24T17:41:34.567Z,3.94
2022-11-24T17:44:08.488Z,3.93
2022-11-24T17:46:40.141Z,3.90
2022-11-24T17:49:13.296Z,3.86
2022-11-24T17:51:46.321Z,3.80
2022-11-24T17:57:10.325Z,3.79
2022-11-24T17:59:41.951Z,3.80
2022-11-24T18:02:13.791Z,3.83
2022-11-24T18:04:45.927Z,3.86
2022-11-24T18:07:17.695Z,3.90
2022-11-24T18:09:49.471Z,3.90
2022-11-24T18:12:21.036Z,3.97
2022-11-24T18:14:52.758Z,3.99
2022-11-24T18:17:24.590Z,4.01
2022-11-24T18:19:56.168Z,4.00
2022-11-24T18:22:43.323Z,3.98
2022-11-24T18:25:19.511Z,3.94
2022-11-24T18:27:51.352Z,3.91
2022-11-24T18:30:23.055Z,3.89
2022-11-24T18:32:54.640Z,3.88
2022-11-24T18:35:26.433Z,3.86
2022-11-24T18:37:58.057Z,3.87
2022-11-24T18:40:29.716Z,3.87
2022-11-24T18:43:01.335Z,3.88
2022-11-24T18:45:33.397Z,3.89
2022-11-24T18:48:05.098Z,3.91
2022-11-24T18:50:36.650Z,3.95
2022-11-24T18:53:08.400Z,3.98
2022-11-24T18:55:39.986Z,4.01
2022-11-24T18:58:11.593Z,4.00
2022-11-24T19:00:43.149Z,3.99
2022-11-24T19:03:14.768Z,3.99
2022-11-24T19:05:46.792Z,3.97
2022-11-24T19:08:18.357Z,3.94
2022-11-24T19:10:50.221Z,3.90
2022-11-24T19:13:21.824Z,3.87
2022-11-24T19:15:53.661Z,3.82
2022-11-24T19:18:25.240Z,3.79
2022-11-24T19:20:58.447Z,3.81
2022-11-24T19:23:30.197Z,3.81
2022-11-24T19:26:04.155Z,3.81
2022-11-24T19:28:36.158Z,3.84
2022-11-24T19:31:11.748Z,3.86
2022-11-24T19:33:44.336Z,3.90
2022-11-24T19:36:18.414Z,3.95
2022-11-24T19:38:54.751Z,3.96
2022-11-24T19:41:28.355Z,3.97
2022-11-24T19:43:58.823Z,3.99
2022-11-24T19:46:31.255Z,3.99
2022-11-24T19:49:04.600Z,3.99
2022-11-24T19:51:38.582Z,3.96
2022-11-24T19:54:12.911Z,3.93
2022-11-24T19:56:44.550Z,3.91
2022-11-24T19:59:17.461Z,3.87
2022-11-24T20:01:49.123Z,3.82
2022-11-24T20:04:21.284Z,3.79
2022-11-24T20:06:52.820Z,3.79
2022-11-24T20:09:33.719Z,3.77
2022-11-24T20:12:09.798Z,3.80
2022-11-24T20:14:41.340Z,3.82
2022-11-24T20:17:14.038Z,3.86
2022-11-24T20:19:45.709Z,3.90
2022-11-24T20:22:17.287Z,3.95
2022-11-24T20:24:48.946Z,4.00
2022-11-24T20:27:20.609Z,4.02
2022-11-24T20:29:52.219Z,4.07
2022-11-24T20:32:23.760Z,4.09
2022-11-24T20:34:55.246Z,4.09
2022-11-24T20:37:28.498Z,4.10
2022-11-24T20:40:02.341Z,4.10
2022-11-24T20:42:35.517Z,4.08
2022-11-24T20:45:08.587Z,4.05
2022-11-24T20:47:40.150Z,4.01
2022-11-24T20:50:12.684Z,3.97
2022-11-24T20:52:44.179Z,3.93
2022-11-24T20:55:15.791Z,3.91
2022-11-24T20:57:47.407Z,3.90
2022-11-24T21:00:19.782Z,3.89
2022-11-24T21:02:51.254Z,3.89
2022-11-24T21:05:22.927Z,3.91
2022-11-24T21:07:54.818Z,3.92
2022-11-24T21:10:26.610Z,3.95
2022-11-24T21:12:58.159Z,3.97
2022-11-24T21:15:30.605Z,3.99
2022-11-24T21:18:02.147Z,3.98
2022-11-24T21:20:35.972Z,4.01
2022-11-24T21:23:07.571Z,4.04
2022-11-24T21:25:39.360Z,4.05
2022-11-24T21:28:12.909Z,4.05
2022-11-24T21:30:42.929Z,4.04
2022-11-24T21:33:14.580Z,4.01
2022-11-24T21:35:46.382Z,3.97
2022-11-24T21:38:17.860Z,3.91
2022-11-24T21:40:50.384Z,3.86
2022-11-24T21:43:22.065Z,3.79
2022-11-24T21:45:53.681Z,3.77
2022-11-24T21:48:25.510Z,3.75
2022-11-24T21:50:58.603Z,3.73
2022-11-24T21:53:33.316Z,3.69
2022-11-24T21:56:07.021Z,3.64
2022-11-24T21:58:37.272Z,3.60
2022-11-24T22:01:11.149Z,3.54
2022-11-24T22:03:42.739Z,3.51
2022-11-24T22:06:15.087Z,3.50
2022-11-24T22:08:47.236Z,3.48
2022-11-24T22:11:21.047Z,3.47
2022-11-24T22:13:52.991Z,3.47
2022-11-24T22:16:26.011Z,3.47
2022-11-24T22:18:57.732Z,3.46
2022-11-24T22:21:33.338Z,3.46
2022-11-24T22:24:05.796Z,3.46
2022-11-24T22:26:37.357Z,3.46
2022-11-24T22:29:09.237Z,3.46
2022-11-24T22:31:40.781Z,3.46
2022-11-24T22:34:12.453Z,3.46
2022-11-24T22:36:43.918Z,3.46
2022-11-24T22:39:15.509Z,3.47
2022-11-24T22:41:47.048Z,3.47
2022-11-24T22:44:18.577Z,3.50
2022-11-24T22:46:50.552Z,3.50
2022-11-24T22:49:22.105Z,3.50
2022-11-24T22:51:53.750Z,3.51
2022-11-24T22:54:25.438Z,3.52
2022-11-24T22:56:56.945Z,3.53
2022-11-24T22:59:28.528Z,3.48
2022-11-24T23:02:00.016Z,3.55
2022-11-24T23:04:31.543Z,3.55
2022-11-24T23:07:03.016Z,3.55
2022-11-24T23:09:35.020Z,3.55
2022-11-24T23:12:07.725Z,3.54
2022-11-24T23:14:39.212Z,3.54
2022-11-24T23:17:10.865Z,3.55
2022-11-24T23:19:42.401Z,3.57
2022-11-24T23:22:13.871Z,3.58
2022-11-24T23:24:45.327Z,3.59
2022-11-24T23:27:16.937Z,3.59
2022-11-24T23:29:48.408Z,3.59
2022-11-24T23:32:19.915Z,3.60
2022-11-24T23:34:51.587Z,3.60
2022-11-24T23:37:34.306Z,3.59
2022-11-24T23:40:15.475Z,3.60
2022-11-24T23:42:49.048Z,3.59
2022-11-24T23:45:19.107Z,3.60
2022-11-24T23:47:50.624Z,3.58
2022-11-24T23:50:22.266Z,3.58
2022-11-24T23:52:54.249Z,3.56
2022-11-24T23:55:25.768Z,3.57
2022-11-24T23:57:57.263Z,3.57
